Ciudad Bolivar, Venezuela
Current Conditions -  °F | °C
As of 6:00 PM on Saturday 25 Oct 2014 (Local Time) from SVBC Reporting Station
Drizzle Drizzle  
Wind Chill: 79°   Ceiling: 1000
Heat Index: 83°   Visibility: 6mi
Dew Point: 79°   Wind: 0mph
Humidity: 100%   Direction: NA
Pressure: 29.8"   Gusts: NA
Location:  8.1°N, 63.6°W
Report Text: SVBC 252200Z 00000KT 9999 -DZ BKN010 26/26 Q1009
Loading
Personal Weather Stations






























Interactive Weather Map
Tropical Storm Tracking
New forecast layout! Learn more

10-Day Weather Forecast

Advertisements
Track Severe Weather on mobile